Rouen Airport

LFOP · Seine-Maritime, Normandy, 法国

METAR的历史 LFOP · Rouen Airport

下面你可以看到过去几天的METARs。 选择年份以浏览从2007年开始的旧METAR。

2022年11月29日

时间 代码 天气 温度 能见度 天花板 METAR/SPECI
01:00
L
5 °C 700 m - 190° 190° 3 kt SPECI LFOP 290000Z AUTO 19003KT 0800 0700 R22/1100D FG FEW040 05/04 Q1013
01:00
L
5 °C 700 m - 190° 190° 3 kt METAR LFOP 290000Z AUTO 19003KT 0800 0700 R22/1100D FG FEW040 05/04 Q1013
00:30
I
6 °C 3,3 km - 220° 220° 5 kt METAR LFOP 282330Z AUTO 22005KT 9000 3300 FEW007 06/05 Q1013
00:00
I
6 °C 10 km+ 700 ft 200° 200° 3 kt METAR LFOP 282300Z AUTO 20003KT 170V230 9999 BKN007 06/05 Q1013

2022年11月28日

时间 代码 天气 温度 能见度 天花板 METAR/SPECI
23:30
I
6 °C 10 km+ 900 ft 190° 190° 4 kt METAR LFOP 282230Z AUTO 19004KT 9999 BKN009/// OVC017/// ///TCU 06/06 Q1013
23:00
I
6 °C 10 km+ 800 ft 190° 190° 2 kt METAR LFOP 282200Z AUTO 19002KT 9999 BKN008/// OVC013/// ///TCU 06/06 Q1013
22:30
M
6 °C 10 km+ 1.000 ft 210° 210° 4 kt METAR LFOP 282130Z AUTO 21004KT 9999 OVC010 06/05 Q1013
22:00
M
6 °C 10 km+ 1.100 ft 170° 170° 3 kt METAR LFOP 282100Z AUTO 17003KT 9999 OVC011 06/05 Q1013 BECMG SCT040
21:30
M
6 °C 10 km+ 1.600 ft 200° 200° 3 kt METAR LFOP 282030Z AUTO 20003KT 9999 SCT010 BKN016 BKN170 06/05 Q1013 NOSIG
21:00
M
6 °C 10 km+ 1.600 ft 230° 230° 5 kt METAR LFOP 282000Z AUTO 23005KT 9999 BKN016 OVC190 06/05 Q1013 TEMPO 4000 SHRA BKN020TCU
20:30
V
7 °C 10 km+ - 230° 230° 7 kt METAR LFOP 281930Z AUTO 23007KT 9999 NSC 07/05 Q1012 TEMPO 4000 SHRA BKN020TCU
20:00
M
7 °C 10 km+ 2.200 ft 230° 230° 7 kt METAR LFOP 281900Z AUTO 23007KT 9999 BKN022 BKN040 OVC170 07/05 Q1012 TEMPO 4000 SHRA BKN020TCU
19:30
V
7 °C 10 km+ 4.100 ft 210° 210° 5 kt METAR LFOP 281830Z AUTO 21005KT 9999 FEW022 OVC041 07/06 Q1012 TEMPO 4000 SHRA BKN020TCU
19:00
V
8 °C 10 km+ 3.900 ft 230° 230° 5 kt METAR LFOP 281800Z AUTO 23005KT 9999 OVC039 08/06 Q1012 TEMPO 4000 SHRA BKN020TCU
18:30
V
8 °C 10 km+ 3.800 ft 220° 220° 6 kt METAR LFOP 281730Z AUTO 22006KT 9999 FEW025 SCT030 OVC038 08/06 Q1012 TEMPO 4000 SHRA BKN020TCU
18:00
V
8 °C 10 km+ 4.400 ft 220° 220° 8 kt METAR LFOP 281700Z AUTO 22008KT 9999 SCT035 BKN044 OVC052 08/06 Q1012 TEMPO 4000 SHRA BKN020TCU
17:30
V
8 °C 10 km+ 4.700 ft 210° 210° 7 kt METAR LFOP 281630Z AUTO 21007KT 9999 BKN047 08/07 Q1011 TEMPO 4000 SHRA BKN020TCU
17:00
V
8 °C 10 km+ - 200° 200° 7 kt METAR LFOP 281600Z AUTO 20007KT 9999 NSC 08/06 Q1011 TEMPO 4000 SHRA BKN020TCU
16:30
V
8 °C 10 km+ - 200° 200° 8 kt METAR LFOP 281530Z AUTO 20008KT 9999 FEW018/// //////TCU 08/06 Q1011 TEMPO 4000 SHRA
16:00
M
9 °C 10 km+ 2.000 ft 210° 210° 7 kt METAR LFOP 281500Z AUTO 21007KT 9999 BKN020/// BKN049/// BKN064/// ///TCU 09/07 Q1011 TEMPO 4000 SHRA BKN015 BKN025
15:30
V
9 °C 10 km+ 4.000 ft 230° 230° 8 kt METAR LFOP 281430Z AUTO 23008KT 9999 -RA SCT018/// SCT023/// BKN040/// //////TCU 09/07 Q1011 TEMPO 4000 SHRA BKN015 BKN025
15:00
M
10 °C 10 km+ 1.900 ft 230° 230° 9 kt METAR LFOP 281400Z AUTO 23009KT 9999 BKN019 BKN026 BKN045 10/07 Q1010 NOSIG
14:30
M
10 °C 10 km+ 2.000 ft 220° 220° 8 kt METAR LFOP 281330Z AUTO 22008KT 9999 // BKN020 BKN028 BKN037 10/07 Q1010
14:00
M
10 °C 10 km+ 1.500 ft 230° 230° 9 kt METAR LFOP 281300Z AUTO 23009KT 200V270 9999 BKN015 BKN021 BKN026 10/07 Q1010

我们和第三方通过cookies跟踪您在我们网站上的互联网行为。如果你继续,我们认为你同意我们的饼干政策